Airfield :
LOGIN :

Register | Disclaimer

   EN    FR    IT 

 










Legend :    VFR   Marginal VFR   IFR   Intensive IFR   Very Intensive IFR
Visi :
Ceiling :
>= 8 km
>= 3000ft
5 to 8 km
1000 to 3000 ft
1500m to 5 km
500 to 1000 ft
800 to 1500m
200 to 500 ft
< 800m
< 200 ft
Symbols :   Thunderstorms  Fog  Heavy snow  Heavy precipitations  Wind > 20 kt
SIGMETs :     Misc.  Thunderstorms  Icing  Turbulence  Mountain Waves  Volcanic Ashes







- Airport Elevation : 755 ft
- IATA code : DRS


EDDC - Dresden Klotzsche

EXPIRED METARs :
  • 241420Z 28012G22KT 220V340 CAVOK 26/11 Q1012 NOSIG
  • 241350Z 28008KT 240V340 CAVOK 26/10 Q1012 TEMPO 27015G25KT
  • 241320Z 26012KT 220V300 CAVOK 26/10 Q1013 TEMPO 27015G25KT
  • 241250Z 27011KT 240V300 CAVOK 25/11 Q1013 TEMPO 27015G25KT
  • 241220Z 26009KT 210V290 CAVOK 25/11 Q1013 TEMPO 27015G25KT
  • 241150Z 27010KT 220V320 CAVOK 25/12 Q1013 TEMPO 27015G25KT

TAF TAF EDDC
Valid from the 24 at 12:00 until the 25 at 12:00 UTC


241100Z 2412/2512 27015G25KT CAVOK
BECMG 2416/2419 25005KT
BECMG 2506/2509 26015G25KT
No reported NOTAMs for that airfield.
1 SIGMET reported for the München FIR (EDMM) :
 
Embedded thunderstorms
EDMM SIGMET 1 VALID 250500/250800 EDZM
EDMM MUNCHEN FIR EMBD TS FCST S OF N4750 TOP FL380 MOV E NC=



MET'MAP, your aeronautical weather chart ! - Copyright ORBIFLY December 2007 - Disclaimer

ORBIFLY MET'MAP TEAM :

Programming & Development : Alexandra Zaïnal
Concept & Development : Baudouin d'Aumeries
Co-Development & Prog : Marc-Olivier Méhu
Technical & hardware support : Manuel Goepfert

Contact : metmap@orbifly.com




SOURCES & CREDITS :

   NOAA